sensor_id;sensor_type;location;lat;lon;timestamp;temperature;humidity
23079;DHT22;11707;50.830;4.364;2023-11-21T00:01:40;11.30;99.90
23079;DHT22;11707;50.830;4.364;2023-11-21T00:04:05;11.20;99.90
23079;DHT22;11707;50.830;4.364;2023-11-21T00:06:33;11.30;99.90
23079;DHT22;11707;50.830;4.364;2023-11-21T00:08:59;11.20;99.90
23079;DHT22;11707;50.830;4.364;2023-11-21T00:11:25;11.30;99.90
23079;DHT22;11707;50.830;4.364;2023-11-21T00:13:54;11.20;99.90
23079;DHT22;11707;50.830;4.364;2023-11-21T00:16:20;11.10;99.90
23079;DHT22;11707;50.830;4.364;2023-11-21T00:18:47;11.10;99.90
23079;DHT22;11707;50.830;4.364;2023-11-21T00:21:13;10.90;99.90
23079;DHT22;11707;50.830;4.364;2023-11-21T00:23:38;10.90;99.90
23079;DHT22;11707;50.830;4.364;2023-11-21T00:26:04;11.00;99.90
23079;DHT22;11707;50.830;4.364;2023-11-21T00:28:30;10.90;99.90
23079;DHT22;11707;50.830;4.364;2023-11-21T00:30:56;11.00;99.90
23079;DHT22;11707;50.830;4.364;2023-11-21T00:33:21;11.00;99.90
23079;DHT22;11707;50.830;4.364;2023-11-21T00:35:47;11.10;99.90
23079;DHT22;11707;50.830;4.364;2023-11-21T00:38:13;11.10;99.90
23079;DHT22;11707;50.830;4.364;2023-11-21T00:40:38;11.10;99.90
23079;DHT22;11707;50.830;4.364;2023-11-21T00:43:04;11.10;99.90
23079;DHT22;11707;50.830;4.364;2023-11-21T00:45:30;11.10;99.90
23079;DHT22;11707;50.830;4.364;2023-11-21T00:47:59;11.10;99.90
23079;DHT22;11707;50.830;4.364;2023-11-21T00:50:26;11.20;99.90
23079;DHT22;11707;50.830;4.364;2023-11-21T00:52:52;11.10;99.90
23079;DHT22;11707;50.830;4.364;2023-11-21T00:55:20;11.10;99.90
23079;DHT22;11707;50.830;4.364;2023-11-21T00:57:46;11.10;99.90
23079;DHT22;11707;50.830;4.364;2023-11-21T01:00:12;11.10;99.90
23079;DHT22;11707;50.830;4.364;2023-11-21T01:02:43;11.00;99.90
23079;DHT22;11707;50.830;4.364;2023-11-21T01:05:13;11.00;99.90
23079;DHT22;11707;50.830;4.364;2023-11-21T01:07:41;11.00;99.90
23079;DHT22;11707;50.830;4.364;2023-11-21T01:10:07;11.00;99.90
23079;DHT22;11707;50.830;4.364;2023-11-21T01:12:37;10.90;99.90
23079;DHT22;11707;50.830;4.364;2023-11-21T01:15:09;10.80;99.90
23079;DHT22;11707;50.830;4.364;2023-11-21T01:17:37;10.80;99.90
23079;DHT22;11707;50.830;4.364;2023-11-21T01:20:04;10.90;99.90
23079;DHT22;11707;50.830;4.364;2023-11-21T01:22:37;10.80;99.90
23079;DHT22;11707;50.830;4.364;2023-11-21T01:25:02;10.90;99.90
23079;DHT22;11707;50.830;4.364;2023-11-21T01:27:32;10.90;99.90
23079;DHT22;11707;50.830;4.364;2023-11-21T01:29:58;11.00;99.90
23079;DHT22;11707;50.830;4.364;2023-11-21T01:32:23;11.00;99.90
23079;DHT22;11707;50.830;4.364;2023-11-21T01:34:50;11.00;99.90
23079;DHT22;11707;50.830;4.364;2023-11-21T01:37:16;11.10;99.90
23079;DHT22;11707;50.830;4.364;2023-11-21T01:39:43;11.10;99.90
23079;DHT22;11707;50.830;4.364;2023-11-21T01:42:09;11.10;99.90
23079;DHT22;11707;50.830;4.364;2023-11-21T01:44:36;10.90;99.90
23079;DHT22;11707;50.830;4.364;2023-11-21T01:47:05;10.80;99.90
23079;DHT22;11707;50.830;4.364;2023-11-21T01:49:34;10.70;99.90
23079;DHT22;11707;50.830;4.364;2023-11-21T01:52:00;10.60;99.90
23079;DHT22;11707;50.830;4.364;2023-11-21T01:54:28;10.50;99.90
23079;DHT22;11707;50.830;4.364;2023-11-21T01:57:00;10.40;99.90
23079;DHT22;11707;50.830;4.364;2023-11-21T01:59:38;10.20;99.90
23079;DHT22;11707;50.830;4.364;2023-11-21T02:02:07;10.20;99.90
23079;DHT22;11707;50.830;4.364;2023-11-21T02:04:35;10.20;99.90
23079;DHT22;11707;50.830;4.364;2023-11-21T02:07:04;10.30;99.90
23079;DHT22;11707;50.830;4.364;2023-11-21T02:09:32;10.20;99.90
23079;DHT22;11707;50.830;4.364;2023-11-21T02:12:04;10.10;99.90
23079;DHT22;11707;50.830;4.364;2023-11-21T02:14:30;10.10;99.90
23079;DHT22;11707;50.830;4.364;2023-11-21T02:16:59;10.10;99.90
23079;DHT22;11707;50.830;4.364;2023-11-21T02:19:26;10.10;99.90
23079;DHT22;11707;50.830;4.364;2023-11-21T02:21:53;10.00;99.90
23079;DHT22;11707;50.830;4.364;2023-11-21T02:24:22;10.20;99.90
23079;DHT22;11707;50.830;4.364;2023-11-21T02:26:48;10.10;99.90
23079;DHT22;11707;50.830;4.364;2023-11-21T02:29:17;10.00;99.90
23079;DHT22;11707;50.830;4.364;2023-11-21T02:31:45;10.00;99.90
23079;DHT22;11707;50.830;4.364;2023-11-21T02:34:16;10.00;99.90
23079;DHT22;11707;50.830;4.364;2023-11-21T02:36:45;10.00;99.90
23079;DHT22;11707;50.830;4.364;2023-11-21T02:39:11;9.90;99.90
23079;DHT22;11707;50.830;4.364;2023-11-21T02:41:39;9.90;99.90
23079;DHT22;11707;50.830;4.364;2023-11-21T02:44:06;10.00;99.90
23079;DHT22;11707;50.830;4.364;2023-11-21T02:46:33;9.90;99.90
23079;DHT22;11707;50.830;4.364;2023-11-21T02:49:03;9.90;99.90
23079;DHT22;11707;50.830;4.364;2023-11-21T02:51:32;10.00;99.90
23079;DHT22;11707;50.830;4.364;2023-11-21T02:53:59;10.00;99.90
23079;DHT22;11707;50.830;4.364;2023-11-21T02:56:28;10.00;99.90
23079;DHT22;11707;50.830;4.364;2023-11-21T02:58:56;10.20;99.90
23079;DHT22;11707;50.830;4.364;2023-11-21T03:01:24;10.20;99.90
23079;DHT22;11707;50.830;4.364;2023-11-21T03:03:50;10.30;99.90
23079;DHT22;11707;50.830;4.364;2023-11-21T03:06:19;10.30;99.90
23079;DHT22;11707;50.830;4.364;2023-11-21T03:08:45;10.30;99.90
23079;DHT22;11707;50.830;4.364;2023-11-21T03:11:11;10.30;99.90
23079;DHT22;11707;50.830;4.364;2023-11-21T03:13:41;10.30;99.90
23079;DHT22;11707;50.830;4.364;2023-11-21T03:16:12;10.20;99.90
23079;DHT22;11707;50.830;4.364;2023-11-21T03:18:38;10.20;99.90
23079;DHT22;11707;50.830;4.364;2023-11-21T03:21:07;10.30;99.90
23079;DHT22;11707;50.830;4.364;2023-11-21T03:23:37;10.30;99.90
23079;DHT22;11707;50.830;4.364;2023-11-21T03:26:06;10.40;99.90
23079;DHT22;11707;50.830;4.364;2023-11-21T03:28:33;10.60;99.90
23079;DHT22;11707;50.830;4.364;2023-11-21T03:30:59;10.60;99.90
23079;DHT22;11707;50.830;4.364;2023-11-21T03:33:25;10.60;99.90
23079;DHT22;11707;50.830;4.364;2023-11-21T03:35:53;10.60;99.90
23079;DHT22;11707;50.830;4.364;2023-11-21T03:38:19;10.70;99.90
23079;DHT22;11707;50.830;4.364;2023-11-21T03:40:45;10.60;99.90
23079;DHT22;11707;50.830;4.364;2023-11-21T03:43:13;10.60;99.90
23079;DHT22;11707;50.830;4.364;2023-11-21T03:45:38;10.70;99.90
23079;DHT22;11707;50.830;4.364;2023-11-21T03:48:06;10.80;99.90
23079;DHT22;11707;50.830;4.364;2023-11-21T03:50:32;10.80;99.90
23079;DHT22;11707;50.830;4.364;2023-11-21T03:52:57;10.80;99.90
23079;DHT22;11707;50.830;4.364;2023-11-21T03:55:23;10.90;99.90
23079;DHT22;11707;50.830;4.364;2023-11-21T03:57:50;10.90;99.90
23079;DHT22;11707;50.830;4.364;2023-11-21T04:00:17;10.90;99.90
23079;DHT22;11707;50.830;4.364;2023-11-21T04:02:43;10.80;99.90
23079;DHT22;11707;50.830;4.364;2023-11-21T04:05:11;10.80;99.90
23079;DHT22;11707;50.830;4.364;2023-11-21T04:07:37;10.80;99.90
23079;DHT22;11707;50.830;4.364;2023-11-21T04:10:07;10.90;99.90
23079;DHT22;11707;50.830;4.364;2023-11-21T04:12:35;10.80;99.90
23079;DHT22;11707;50.830;4.364;2023-11-21T04:15:01;11.00;99.90
23079;DHT22;11707;50.830;4.364;2023-11-21T04:17:27;11.00;99.90
23079;DHT22;11707;50.830;4.364;2023-11-21T04:19:56;11.10;99.90
23079;DHT22;11707;50.830;4.364;2023-11-21T04:22:21;11.00;99.90
23079;DHT22;11707;50.830;4.364;2023-11-21T04:24:47;11.10;99.90
23079;DHT22;11707;50.830;4.364;2023-11-21T04:27:13;11.10;99.90
23079;DHT22;11707;50.830;4.364;2023-11-21T04:29:39;11.10;99.90
23079;DHT22;11707;50.830;4.364;2023-11-21T04:32:06;11.00;99.90
23079;DHT22;11707;50.830;4.364;2023-11-21T04:34:33;10.90;99.90
23079;DHT22;11707;50.830;4.364;2023-11-21T04:37:00;11.00;99.90
23079;DHT22;11707;50.830;4.364;2023-11-21T04:39:26;11.00;99.90
23079;DHT22;11707;50.830;4.364;2023-11-21T04:41:52;11.10;99.90
23079;DHT22;11707;50.830;4.364;2023-11-21T04:44:17;11.20;99.90
23079;DHT22;11707;50.830;4.364;2023-11-21T04:46:43;11.30;99.90
23079;DHT22;11707;50.830;4.364;2023-11-21T04:49:09;11.30;99.90
23079;DHT22;11707;50.830;4.364;2023-11-21T04:51:37;11.30;99.90
23079;DHT22;11707;50.830;4.364;2023-11-21T04:54:03;11.40;99.90
23079;DHT22;11707;50.830;4.364;2023-11-21T04:56:29;11.30;99.90
23079;DHT22;11707;50.830;4.364;2023-11-21T04:58:54;11.30;99.90
23079;DHT22;11707;50.830;4.364;2023-11-21T05:01:20;11.30;99.90
23079;DHT22;11707;50.830;4.364;2023-11-21T05:03:46;11.20;99.90
23079;DHT22;11707;50.830;4.364;2023-11-21T05:06:12;11.20;99.90
23079;DHT22;11707;50.830;4.364;2023-11-21T05:08:39;11.20;99.90
23079;DHT22;11707;50.830;4.364;2023-11-21T05:11:05;11.20;99.90
23079;DHT22;11707;50.830;4.364;2023-11-21T05:13:34;11.20;99.90
23079;DHT22;11707;50.830;4.364;2023-11-21T05:15:59;11.10;99.90
23079;DHT22;11707;50.830;4.364;2023-11-21T05:18:25;11.10;99.90
23079;DHT22;11707;50.830;4.364;2023-11-21T05:20:55;11.00;99.90
23079;DHT22;11707;50.830;4.364;2023-11-21T05:23:21;11.00;99.90
23079;DHT22;11707;50.830;4.364;2023-11-21T05:25:47;11.00;99.90
23079;DHT22;11707;50.830;4.364;2023-11-21T05:28:13;11.00;99.90
23079;DHT22;11707;50.830;4.364;2023-11-21T05:30:39;11.00;99.90
23079;DHT22;11707;50.830;4.364;2023-11-21T05:33:07;11.10;99.90
23079;DHT22;11707;50.830;4.364;2023-11-21T05:35:35;11.00;99.90
23079;DHT22;11707;50.830;4.364;2023-11-21T05:38:01;11.00;99.90
23079;DHT22;11707;50.830;4.364;2023-11-21T05:40:26;10.90;99.90
23079;DHT22;11707;50.830;4.364;2023-11-21T05:42:55;10.90;99.90
23079;DHT22;11707;50.830;4.364;2023-11-21T05:45:23;10.80;99.90
23079;DHT22;11707;50.830;4.364;2023-11-21T05:47:48;10.60;99.90
23079;DHT22;11707;50.830;4.364;2023-11-21T05:50:15;10.50;99.90
23079;DHT22;11707;50.830;4.364;2023-11-21T05:52:45;10.50;99.90
23079;DHT22;11707;50.830;4.364;2023-11-21T05:55:14;10.50;99.90
23079;DHT22;11707;50.830;4.364;2023-11-21T05:57:41;10.60;99.90
23079;DHT22;11707;50.830;4.364;2023-11-21T06:00:13;10.80;99.90
23079;DHT22;11707;50.830;4.364;2023-11-21T06:02:47;10.70;99.90
23079;DHT22;11707;50.830;4.364;2023-11-21T06:05:17;10.80;99.90
23079;DHT22;11707;50.830;4.364;2023-11-21T06:07:43;10.90;99.90
23079;DHT22;11707;50.830;4.364;2023-11-21T06:10:11;10.90;99.90
23079;DHT22;11707;50.830;4.364;2023-11-21T06:12:38;10.90;99.90
23079;DHT22;11707;50.830;4.364;2023-11-21T06:15:07;10.90;99.90
23079;DHT22;11707;50.830;4.364;2023-11-21T06:17:35;10.90;99.90
23079;DHT22;11707;50.830;4.364;2023-11-21T06:20:06;10.90;99.90
23079;DHT22;11707;50.830;4.364;2023-11-21T06:22:38;11.00;99.90
23079;DHT22;11707;50.830;4.364;2023-11-21T06:25:05;10.90;99.90
23079;DHT22;11707;50.830;4.364;2023-11-21T06:27:37;10.80;99.90
23079;DHT22;11707;50.830;4.364;2023-11-21T06:30:03;10.80;99.90
23079;DHT22;11707;50.830;4.364;2023-11-21T06:32:31;10.70;99.90
23079;DHT22;11707;50.830;4.364;2023-11-21T06:34:59;10.70;99.90
23079;DHT22;11707;50.830;4.364;2023-11-21T06:37:28;10.80;99.90
23079;DHT22;11707;50.830;4.364;2023-11-21T06:39:54;10.70;99.90
23079;DHT22;11707;50.830;4.364;2023-11-21T06:42:20;10.60;99.90
23079;DHT22;11707;50.830;4.364;2023-11-21T06:44:46;10.60;99.90
23079;DHT22;11707;50.830;4.364;2023-11-21T06:47:13;10.60;99.90
23079;DHT22;11707;50.830;4.364;2023-11-21T06:49:39;10.70;99.90
23079;DHT22;11707;50.830;4.364;2023-11-21T06:52:05;10.80;99.90
23079;DHT22;11707;50.830;4.364;2023-11-21T06:54:31;10.80;99.90
23079;DHT22;11707;50.830;4.364;2023-11-21T06:56:59;10.80;99.90
23079;DHT22;11707;50.830;4.364;2023-11-21T06:59:25;11.00;99.90
23079;DHT22;11707;50.830;4.364;2023-11-21T07:01:51;11.00;99.90
23079;DHT22;11707;50.830;4.364;2023-11-21T07:04:16;11.10;99.90
23079;DHT22;11707;50.830;4.364;2023-11-21T07:06:44;11.00;99.90
23079;DHT22;11707;50.830;4.364;2023-11-21T07:09:09;11.10;99.90
23079;DHT22;11707;50.830;4.364;2023-11-21T07:11:37;11.10;99.90
23079;DHT22;11707;50.830;4.364;2023-11-21T07:14:04;11.00;99.90
23079;DHT22;11707;50.830;4.364;2023-11-21T07:16:38;11.10;99.90
23079;DHT22;11707;50.830;4.364;2023-11-21T07:19:04;11.10;99.90
23079;DHT22;11707;50.830;4.364;2023-11-21T07:21:33;11.10;99.90
23079;DHT22;11707;50.830;4.364;2023-11-21T07:24:03;11.00;99.90
23079;DHT22;11707;50.830;4.364;2023-11-21T07:26:30;11.10;99.90
23079;DHT22;11707;50.830;4.364;2023-11-21T07:28:55;11.00;99.90
23079;DHT22;11707;50.830;4.364;2023-11-21T07:31:22;11.00;99.90
23079;DHT22;11707;50.830;4.364;2023-11-21T07:33:48;11.00;99.90
23079;DHT22;11707;50.830;4.364;2023-11-21T07:36:15;11.00;99.90
23079;DHT22;11707;50.830;4.364;2023-11-21T07:38:42;10.90;99.90
23079;DHT22;11707;50.830;4.364;2023-11-21T07:41:10;10.90;99.90
23079;DHT22;11707;50.830;4.364;2023-11-21T07:43:41;10.90;99.90
23079;DHT22;11707;50.830;4.364;2023-11-21T07:46:07;10.80;99.90
23079;DHT22;11707;50.830;4.364;2023-11-21T07:48:36;10.80;99.90
23079;DHT22;11707;50.830;4.364;2023-11-21T07:51:02;10.90;99.90
23079;DHT22;11707;50.830;4.364;2023-11-21T07:53:38;10.90;99.90
23079;DHT22;11707;50.830;4.364;2023-11-21T07:56:05;10.90;99.90
23079;DHT22;11707;50.830;4.364;2023-11-21T07:58:32;10.90;99.90
23079;DHT22;11707;50.830;4.364;2023-11-21T08:01:01;11.00;99.90
23079;DHT22;11707;50.830;4.364;2023-11-21T08:03:27;11.10;99.90
23079;DHT22;11707;50.830;4.364;2023-11-21T08:05:54;11.10;99.90
23079;DHT22;11707;50.830;4.364;2023-11-21T08:08:20;11.10;99.90
23079;DHT22;11707;50.830;4.364;2023-11-21T08:10:46;11.30;99.90
23079;DHT22;11707;50.830;4.364;2023-11-21T08:13:13;11.30;99.90
23079;DHT22;11707;50.830;4.364;2023-11-21T08:15:43;11.00;99.90
23079;DHT22;11707;50.830;4.364;2023-11-21T08:18:10;11.00;99.90
23079;DHT22;11707;50.830;4.364;2023-11-21T08:20:36;10.90;99.90
23079;DHT22;11707;50.830;4.364;2023-11-21T08:23:05;10.90;99.90
23079;DHT22;11707;50.830;4.364;2023-11-21T08:25:32;10.90;99.90
23079;DHT22;11707;50.830;4.364;2023-11-21T08:27:59;11.00;99.90
23079;DHT22;11707;50.830;4.364;2023-11-21T08:30:25;11.00;99.90
23079;DHT22;11707;50.830;4.364;2023-11-21T08:32:50;11.10;99.90
23079;DHT22;11707;50.830;4.364;2023-11-21T08:35:19;11.30;99.90
23079;DHT22;11707;50.830;4.364;2023-11-21T08:37:45;11.30;99.90
23079;DHT22;11707;50.830;4.364;2023-11-21T08:40:11;11.20;99.90
23079;DHT22;11707;50.830;4.364;2023-11-21T08:42:42;11.10;99.90
23079;DHT22;11707;50.830;4.364;2023-11-21T08:45:08;11.00;99.90
23079;DHT22;11707;50.830;4.364;2023-11-21T08:47:36;11.00;99.90
23079;DHT22;11707;50.830;4.364;2023-11-21T08:50:03;11.00;99.90
23079;DHT22;11707;50.830;4.364;2023-11-21T08:52:35;11.00;99.90
23079;DHT22;11707;50.830;4.364;2023-11-21T08:55:02;11.10;99.90
23079;DHT22;11707;50.830;4.364;2023-11-21T08:57:36;11.20;99.90
23079;DHT22;11707;50.830;4.364;2023-11-21T09:00:10;11.20;99.90
23079;DHT22;11707;50.830;4.364;2023-11-21T09:02:43;11.20;99.90
23079;DHT22;11707;50.830;4.364;2023-11-21T09:05:11;11.30;99.90
23079;DHT22;11707;50.830;4.364;2023-11-21T09:07:40;11.40;99.90
23079;DHT22;11707;50.830;4.364;2023-11-21T09:10:11;11.50;99.90
23079;DHT22;11707;50.830;4.364;2023-11-21T09:12:37;11.60;99.90
23079;DHT22;11707;50.830;4.364;2023-11-21T09:15:04;11.70;99.90
23079;DHT22;11707;50.830;4.364;2023-11-21T09:17:31;11.80;99.90
23079;DHT22;11707;50.830;4.364;2023-11-21T09:19:57;11.80;99.90
23079;DHT22;11707;50.830;4.364;2023-11-21T09:22:23;11.70;99.90
23079;DHT22;11707;50.830;4.364;2023-11-21T09:24:51;11.60;99.90
23079;DHT22;11707;50.830;4.364;2023-11-21T09:27:16;11.60;99.90
23079;DHT22;11707;50.830;4.364;2023-11-21T09:29:43;11.50;99.90
23079;DHT22;11707;50.830;4.364;2023-11-21T09:32:08;11.60;99.90
23079;DHT22;11707;50.830;4.364;2023-11-21T09:34:38;11.60;99.90
23079;DHT22;11707;50.830;4.364;2023-11-21T09:37:04;11.50;99.90
23079;DHT22;11707;50.830;4.364;2023-11-21T09:39:33;11.50;99.90
23079;DHT22;11707;50.830;4.364;2023-11-21T09:44:56;11.30;99.90
23079;DHT22;11707;50.830;4.364;2023-11-21T09:47:24;11.40;99.90
23079;DHT22;11707;50.830;4.364;2023-11-21T09:49:52;11.40;99.90
23079;DHT22;11707;50.830;4.364;2023-11-21T09:52:26;11.30;99.90
23079;DHT22;11707;50.830;4.364;2023-11-21T09:54:55;11.30;99.90
23079;DHT22;11707;50.830;4.364;2023-11-21T09:57:25;11.30;99.90
23079;DHT22;11707;50.830;4.364;2023-11-21T09:59:54;11.30;99.90
23079;DHT22;11707;50.830;4.364;2023-11-21T10:02:28;11.30;99.90
23079;DHT22;11707;50.830;4.364;2023-11-21T10:04:59;11.20;99.90
23079;DHT22;11707;50.830;4.364;2023-11-21T10:07:26;11.20;99.90
23079;DHT22;11707;50.830;4.364;2023-11-21T10:09:55;11.10;99.90
23079;DHT22;11707;50.830;4.364;2023-11-21T10:12:22;11.20;99.90
23079;DHT22;11707;50.830;4.364;2023-11-21T10:14:50;11.20;99.90
23079;DHT22;11707;50.830;4.364;2023-11-21T10:17:18;11.10;99.90
23079;DHT22;11707;50.830;4.364;2023-11-21T10:19:47;11.10;99.90
23079;DHT22;11707;50.830;4.364;2023-11-21T10:22:16;10.90;99.90
23079;DHT22;11707;50.830;4.364;2023-11-21T10:24:43;10.70;99.90
23079;DHT22;11707;50.830;4.364;2023-11-21T10:27:09;10.80;99.90
23079;DHT22;11707;50.830;4.364;2023-11-21T10:29:34;10.90;99.90
23079;DHT22;11707;50.830;4.364;2023-11-21T10:32:04;10.80;99.90
23079;DHT22;11707;50.830;4.364;2023-11-21T10:34:33;10.80;99.90
23079;DHT22;11707;50.830;4.364;2023-11-21T10:36:59;10.80;99.90
23079;DHT22;11707;50.830;4.364;2023-11-21T10:39:36;10.90;99.90
23079;DHT22;11707;50.830;4.364;2023-11-21T10:42:02;11.00;99.90
23079;DHT22;11707;50.830;4.364;2023-11-21T10:44:28;11.00;99.90
23079;DHT22;11707;50.830;4.364;2023-11-21T10:46:54;11.10;99.90
23079;DHT22;11707;50.830;4.364;2023-11-21T10:49:25;11.10;99.90
23079;DHT22;11707;50.830;4.364;2023-11-21T10:51:55;11.10;99.90
23079;DHT22;11707;50.830;4.364;2023-11-21T10:54:22;11.20;99.90
23079;DHT22;11707;50.830;4.364;2023-11-21T10:56:50;11.30;99.90
23079;DHT22;11707;50.830;4.364;2023-11-21T10:59:17;11.40;99.90
23079;DHT22;11707;50.830;4.364;2023-11-21T11:01:46;11.40;99.90
23079;DHT22;11707;50.830;4.364;2023-11-21T11:04:12;11.40;99.90
23079;DHT22;11707;50.830;4.364;2023-11-21T11:06:51;11.60;99.90
23079;DHT22;11707;50.830;4.364;2023-11-21T11:09:17;11.70;99.90
23079;DHT22;11707;50.830;4.364;2023-11-21T11:11:43;11.80;99.90
23079;DHT22;11707;50.830;4.364;2023-11-21T11:14:12;11.90;99.90
23079;DHT22;11707;50.830;4.364;2023-11-21T11:16:41;11.90;99.90
23079;DHT22;11707;50.830;4.364;2023-11-21T11:19:11;11.80;99.90
23079;DHT22;11707;50.830;4.364;2023-11-21T11:35:52;11.60;99.90
23079;DHT22;11707;50.830;4.364;2023-11-21T11:38:22;11.70;99.90
23079;DHT22;11707;50.830;4.364;2023-11-21T11:40:53;11.80;99.90
23079;DHT22;11707;50.830;4.364;2023-11-21T11:43:26;11.90;99.90
23079;DHT22;11707;50.830;4.364;2023-11-21T11:45:55;11.90;99.90
23079;DHT22;11707;50.830;4.364;2023-11-21T11:48:22;11.90;99.90
23079;DHT22;11707;50.830;4.364;2023-11-21T11:53:51;11.90;99.90
23079;DHT22;11707;50.830;4.364;2023-11-21T11:56:33;11.80;99.90
23079;DHT22;11707;50.830;4.364;2023-11-21T11:59:04;11.80;99.90
23079;DHT22;11707;50.830;4.364;2023-11-21T12:01:35;11.80;99.90
23079;DHT22;11707;50.830;4.364;2023-11-21T12:07:03;11.70;99.90
23079;DHT22;11707;50.830;4.364;2023-11-21T12:09:30;11.60;99.90
23079;DHT22;11707;50.830;4.364;2023-11-21T12:11:57;11.50;99.90
23079;DHT22;11707;50.830;4.364;2023-11-21T12:14:25;11.50;99.90
23079;DHT22;11707;50.830;4.364;2023-11-21T12:16:53;11.40;99.90
23079;DHT22;11707;50.830;4.364;2023-11-21T12:19:19;11.40;99.90
23079;DHT22;11707;50.830;4.364;2023-11-21T12:21:46;11.30;99.90
23079;DHT22;11707;50.830;4.364;2023-11-21T12:24:14;11.40;99.90
23079;DHT22;11707;50.830;4.364;2023-11-21T12:26:42;11.40;99.90
23079;DHT22;11707;50.830;4.364;2023-11-21T12:29:08;11.40;99.90
23079;DHT22;11707;50.830;4.364;2023-11-21T12:31:34;11.40;99.90
23079;DHT22;11707;50.830;4.364;2023-11-21T12:34:01;11.30;99.90
23079;DHT22;11707;50.830;4.364;2023-11-21T12:36:29;11.40;99.90
23079;DHT22;11707;50.830;4.364;2023-11-21T12:38:55;11.40;99.90
23079;DHT22;11707;50.830;4.364;2023-11-21T12:41:21;11.40;99.90
23079;DHT22;11707;50.830;4.364;2023-11-21T12:43:47;11.40;99.90
23079;DHT22;11707;50.830;4.364;2023-11-21T12:46:14;11.40;99.90
23079;DHT22;11707;50.830;4.364;2023-11-21T12:48:44;11.40;99.90
23079;DHT22;11707;50.830;4.364;2023-11-21T12:51:12;11.40;99.90
23079;DHT22;11707;50.830;4.364;2023-11-21T12:53:40;11.40;99.90
23079;DHT22;11707;50.830;4.364;2023-11-21T12:56:07;11.40;99.90
23079;DHT22;11707;50.830;4.364;2023-11-21T12:58:38;11.30;99.90
23079;DHT22;11707;50.830;4.364;2023-11-21T13:01:08;11.20;99.90
23079;DHT22;11707;50.830;4.364;2023-11-21T13:03:47;11.30;99.90
23079;DHT22;11707;50.830;4.364;2023-11-21T13:06:15;11.30;99.90
23079;DHT22;11707;50.830;4.364;2023-11-21T13:08:41;11.30;99.90
23079;DHT22;11707;50.830;4.364;2023-11-21T13:11:07;11.30;99.90
23079;DHT22;11707;50.830;4.364;2023-11-21T13:13:33;11.30;99.90
23079;DHT22;11707;50.830;4.364;2023-11-21T13:16:02;11.40;99.90
23079;DHT22;11707;50.830;4.364;2023-11-21T13:18:35;11.40;99.90
23079;DHT22;11707;50.830;4.364;2023-11-21T13:21:03;11.30;99.90
23079;DHT22;11707;50.830;4.364;2023-11-21T13:23:35;11.40;99.90
23079;DHT22;11707;50.830;4.364;2023-11-21T13:26:03;11.40;99.90
23079;DHT22;11707;50.830;4.364;2023-11-21T13:28:30;11.40;99.90
23079;DHT22;11707;50.830;4.364;2023-11-21T13:30:59;11.30;99.90
23079;DHT22;11707;50.830;4.364;2023-11-21T13:33:48;11.30;99.90
23079;DHT22;11707;50.830;4.364;2023-11-21T13:36:22;11.20;99.90
23079;DHT22;11707;50.830;4.364;2023-11-21T13:38:50;11.20;99.90
23079;DHT22;11707;50.830;4.364;2023-11-21T13:41:15;11.20;99.90
23079;DHT22;11707;50.830;4.364;2023-11-21T13:43:43;11.30;99.90
23079;DHT22;11707;50.830;4.364;2023-11-21T13:46:14;11.40;99.90
23079;DHT22;11707;50.830;4.364;2023-11-21T13:48:42;11.40;99.90
23079;DHT22;11707;50.830;4.364;2023-11-21T13:51:14;11.50;99.90
23079;DHT22;11707;50.830;4.364;2023-11-21T13:53:49;11.60;99.90
23079;DHT22;11707;50.830;4.364;2023-11-21T13:56:21;11.60;99.90
23079;DHT22;11707;50.830;4.364;2023-11-21T13:58:51;11.70;99.90
23079;DHT22;11707;50.830;4.364;2023-11-21T14:01:20;11.70;99.90
23079;DHT22;11707;50.830;4.364;2023-11-21T14:04:02;11.50;99.90
23079;DHT22;11707;50.830;4.364;2023-11-21T14:06:38;11.50;99.90
23079;DHT22;11707;50.830;4.364;2023-11-21T14:09:17;11.40;99.90
23079;DHT22;11707;50.830;4.364;2023-11-21T14:11:49;11.30;99.90
23079;DHT22;11707;50.830;4.364;2023-11-21T14:14:17;11.30;99.90
23079;DHT22;11707;50.830;4.364;2023-11-21T14:16:45;11.20;99.90
23079;DHT22;11707;50.830;4.364;2023-11-21T14:19:14;11.30;99.90
23079;DHT22;11707;50.830;4.364;2023-11-21T14:21:46;11.20;99.90
23079;DHT22;11707;50.830;4.364;2023-11-21T14:24:12;11.20;99.90
23079;DHT22;11707;50.830;4.364;2023-11-21T14:26:44;11.20;99.90
23079;DHT22;11707;50.830;4.364;2023-11-21T14:29:17;11.10;99.90
23079;DHT22;11707;50.830;4.364;2023-11-21T14:31:46;11.20;99.90
23079;DHT22;11707;50.830;4.364;2023-11-21T14:34:12;11.30;99.90
23079;DHT22;11707;50.830;4.364;2023-11-21T14:36:40;11.30;99.90
23079;DHT22;11707;50.830;4.364;2023-11-21T14:39:06;11.30;99.90
23079;DHT22;11707;50.830;4.364;2023-11-21T14:41:41;11.30;99.90
23079;DHT22;11707;50.830;4.364;2023-11-21T14:44:09;11.30;99.90
23079;DHT22;11707;50.830;4.364;2023-11-21T14:46:38;11.30;99.90
23079;DHT22;11707;50.830;4.364;2023-11-21T14:49:05;11.30;99.90
23079;DHT22;11707;50.830;4.364;2023-11-21T14:51:55;11.30;99.90
23079;DHT22;11707;50.830;4.364;2023-11-21T14:54:33;11.40;99.90
23079;DHT22;11707;50.830;4.364;2023-11-21T14:57:13;11.30;99.90
23079;DHT22;11707;50.830;4.364;2023-11-21T14:59:47;11.40;99.90
23079;DHT22;11707;50.830;4.364;2023-11-21T15:02:17;11.30;99.90
23079;DHT22;11707;50.830;4.364;2023-11-21T15:04:48;11.30;99.90
23079;DHT22;11707;50.830;4.364;2023-11-21T15:07:17;11.20;99.90
23079;DHT22;11707;50.830;4.364;2023-11-21T15:09:43;11.20;99.90
23079;DHT22;11707;50.830;4.364;2023-11-21T15:12:11;11.20;99.90
23079;DHT22;11707;50.830;4.364;2023-11-21T15:14:49;11.20;99.90
23079;DHT22;11707;50.830;4.364;2023-11-21T15:17:19;11.20;99.90
23079;DHT22;11707;50.830;4.364;2023-11-21T15:19:49;11.20;99.90
23079;DHT22;11707;50.830;4.364;2023-11-21T15:22:16;11.30;99.90
23079;DHT22;11707;50.830;4.364;2023-11-21T15:24:42;11.30;99.90
23079;DHT22;11707;50.830;4.364;2023-11-21T15:27:11;11.20;99.90
23079;DHT22;11707;50.830;4.364;2023-11-21T15:29:40;11.20;99.90
23079;DHT22;11707;50.830;4.364;2023-11-21T15:32:07;11.10;99.90
23079;DHT22;11707;50.830;4.364;2023-11-21T15:34:36;11.10;99.90
23079;DHT22;11707;50.830;4.364;2023-11-21T15:37:04;11.10;99.90
23079;DHT22;11707;50.830;4.364;2023-11-21T15:39:32;11.00;99.90
23079;DHT22;11707;50.830;4.364;2023-11-21T15:41:59;11.10;99.90
23079;DHT22;11707;50.830;4.364;2023-11-21T15:44:25;11.10;99.90
23079;DHT22;11707;50.830;4.364;2023-11-21T15:46:55;11.10;99.90
23079;DHT22;11707;50.830;4.364;2023-11-21T15:49:21;11.20;99.90
23079;DHT22;11707;50.830;4.364;2023-11-21T15:51:48;11.20;99.90
23079;DHT22;11707;50.830;4.364;2023-11-21T15:54:25;11.30;99.90
23079;DHT22;11707;50.830;4.364;2023-11-21T15:56:52;11.30;99.90
23079;DHT22;11707;50.830;4.364;2023-11-21T15:59:22;11.20;99.90